Kamysin, Russia
Current Conditions -  °F | °C
As of 1:00 PM on Tuesday 27 Jan 2015 (Local Time) from URWW Reporting Station
Overcast Overcast  
Wind Chill:   Ceiling: 1600
Heat Index: 14°   Visibility: 6mi
Dew Point: 10°   Wind: 11mph
Humidity: 86%   Direction: 100°E
Pressure: 30.3"   Gusts: NA
Location:  50.07°N, 45.37°E
Report Text: URWW 271000Z 10005MPS 9999 BKN016 OVC100 M10/M12 Q1026 NOSIGRMK 11420355
Loading
Personal Weather Stations






























Interactive Weather Map New forecast layout! Learn more

10-Day Weather Forecast

Advertisements
Track Severe Weather on mobile